Trans Exeter — 9HA2572 — position and weather

sailwx.info

Track history (hours):
 
Tides and Currents Weather Stations Pressure Air Temp Water Temp Dewpoint Dewpoint Depression Visibility Wind Speed Wind Dir Waves Ship Positions

Trans Exeter

Last reported at 2014-Oct-01 05:31 UTC. Time now 2014-Oct-01 10:12 UTC.
Position N 51°18' E 004°20'.

Length 118 m; draft 7.4 m.

Type: Ship (hazmat cat C). MMSI: 248908000.

Date/timePositionNaut miles runAvg speedWind from/ knotsBaromVisibWave heightAir tempDewpointWater temp
2014-Oct-01 05:31N 51°18' E 004°20'0 0.0
2014-Oct-01 04:28N 51°18' E 004°20'0 0.0
2014-Oct-01 03:19N 51°18' E 004°20'0 0.0
2014-Oct-01 02:27N 51°18' E 004°20'0 0.0
2014-Oct-01 01:27N 51°18' E 004°20'0 0.0
2014-Oct-01 00:33N 51°18' E 004°20'0 0.0
2014-Sep-30 16:27N 51°18' E 004°20'0 0.0
2014-Sep-30 15:33N 51°18' E 004°20'0 0.0
2014-Sep-30 14:27N 51°18' E 004°20'0 0.0
2014-Sep-30 13:24N 51°18' E 004°20'0 0.0
2014-Sep-30 12:30N 51°18' E 004°20'0 0.0
2014-Sep-30 11:33N 51°18' E 004°20'0 0.0
2014-Sep-30 10:21N 51°18' E 004°20'0 0.0
2014-Sep-30 09:33N 51°18' E 004°20'0 0.0
2014-Sep-30 07:24N 51°18' E 004°20'0 0.0
2014-Sep-30 04:15N 51°18' E 004°20'0 0.0
2014-Sep-30 03:27N 51°18' E 004°20'0 0.0
2014-Sep-30 02:33N 51°18' E 004°20'0 0.0
2014-Sep-30 01:27N 51°18' E 004°20'0 0.0
2014-Sep-29 21:26N 51°18' E 004°20'2 1.7
2014-Sep-29 20:33N 51°19' E 004°19'2 2.1
2014-Sep-29 19:33N 51°21' E 004°17'2 2.1
2014-Sep-29 18:33N 51°21' E 004°14'3 3.5
2014-Sep-29 17:33N 51°22' E 004°09'5 5.2
2014-Sep-29 16:33N 51°25' E 004°02'9 9.2
2014-Sep-29 15:33N 51°21' E 003°49'10 9.9
2014-Sep-29 14:33N 51°25' E 003°35'1313.0
2014-Sep-29 13:33N 51°24' E 003°14'1313.0
2014-Sep-29 12:33N 51°22' E 002°54'1111.1
2014-Sep-29 11:33N 51°20' E 002°36'0 0.1
2014-Sep-29 10:31N 51°20' E 002°36'0 0.0
2014-Sep-29 09:31N 51°20' E 002°36'0 0.0
2014-Sep-29 08:28N 51°20' E 002°36'0 0.0
2014-Sep-29 07:31N 51°20' E 002°36'0 0.1
2014-Sep-29 06:33N 51°20' E 002°36'6 6.1
2014-Sep-29 05:34N 51°21' E 002°26'6 5.7
2014-Sep-29 04:33N 51°18' E 002°18'7 6.9
2014-Sep-29 03:33N 51°15' E 002°09'1515.3
2014-Sep-29 02:33N 51°08' E 001°47'1716.6
2014-Sep-29 01:34N 50°55' E 001°30'1515.0
2014-Sep-29 00:34N 50°42' E 001°20'1514.8
2014-Sep-28 23:33N 50°32' E 001°01'1514.9
2014-Sep-28 22:34N 50°27' E 000°39'1515.1
2014-Sep-28 21:33N 50°23' E 000°17'1614.4
2014-Sep-28 20:28N 50°19' W 000°07'1213.6
2014-Sep-28 19:33N 50°16' W 000°26'1312.8
2014-Sep-28 18:33N 50°13' W 000°45'1211.6
2014-Sep-28 17:29N 50°09' W 001°04'2010.5
2014-Sep-28 15:33N 50°04' W 001°34'1310.5
2014-Sep-28 14:19N 50°00' W 001°53'  
2014-Sep-26 02:30N 38°45' W 009°56'2613.4
2014-Sep-26 00:33N 38°19' W 009°49'1713.4
2014-Sep-25 23:17N 38°02' W 009°44'1013.4
2014-Sep-25 22:33N 37°53' W 009°41'1313.0
2014-Sep-25 21:33N 37°41' W 009°36'1313.2
2014-Sep-25 20:33N 37°28' W 009°34'1313.3
2014-Sep-25 19:34N 37°15' W 009°30'1312.9
2014-Sep-25 18:33N 37°02' W 009°26'3611.3
2014-Sep-25 15:23N 36°40' W 008°51'1113.4
2014-Sep-25 14:33N 36°43' W 008°38'1313.5
2014-Sep-25 13:33N 36°46' W 008°22'1413.4
2014-Sep-25 12:30N 36°49' W 008°04'  
2014-Sep-22 07:32N 36°49' W 007°47'1515.5
2014-Sep-22 06:33N 36°45' W 008°05'1615.4
2014-Sep-22 05:32N 36°40' W 008°24'1514.7
2014-Sep-22 04:32N 36°35' W 008°41'8812.3
2014-Sep-21 21:26N 37°44' W 009°50'  
Track history (hours):
 
Tides and Currents Weather Stations Pressure Air Temp Water Temp Dewpoint Dewpoint Depression Visibility Wind Speed Wind Dir Waves Ship Positions

Trans Exeter

Last reported at 2014-Oct-01 05:31 UTC. Time now 2014-Oct-01 10:12 UTC.
Position N 51°18' E 004°20'.

Length 118 m; draft 7.4 m.

Type: Ship (hazmat cat C). MMSI: 248908000.

Date/timePositionNaut miles runAvg speedWind from/ knotsBaromVisibWave heightAir tempDewpointWater temp
2014-Oct-01 05:31N 51°18' E 004°20'0 0.0
2014-Oct-01 04:28N 51°18' E 004°20'0 0.0
2014-Oct-01 03:19N 51°18' E 004°20'0 0.0
2014-Oct-01 02:27N 51°18' E 004°20'0 0.0
2014-Oct-01 01:27N 51°18' E 004°20'0 0.0
2014-Oct-01 00:33N 51°18' E 004°20'0 0.0
2014-Sep-30 16:27N 51°18' E 004°20'0 0.0
2014-Sep-30 15:33N 51°18' E 004°20'0 0.0
2014-Sep-30 14:27N 51°18' E 004°20'0 0.0
2014-Sep-30 13:24N 51°18' E 004°20'0 0.0
2014-Sep-30 12:30N 51°18' E 004°20'0 0.0
2014-Sep-30 11:33N 51°18' E 004°20'0 0.0
2014-Sep-30 10:21N 51°18' E 004°20'0 0.0
2014-Sep-30 09:33N 51°18' E 004°20'0 0.0
2014-Sep-30 07:24N 51°18' E 004°20'0 0.0
2014-Sep-30 04:15N 51°18' E 004°20'0 0.0
2014-Sep-30 03:27N 51°18' E 004°20'0 0.0
2014-Sep-30 02:33N 51°18' E 004°20'0 0.0
2014-Sep-30 01:27N 51°18' E 004°20'0 0.0
2014-Sep-29 21:26N 51°18' E 004°20'2 1.7
2014-Sep-29 20:33N 51°19' E 004°19'2 2.1
2014-Sep-29 19:33N 51°21' E 004°17'2 2.1
2014-Sep-29 18:33N 51°21' E 004°14'3 3.5
2014-Sep-29 17:33N 51°22' E 004°09'5 5.2
2014-Sep-29 16:33N 51°25' E 004°02'9 9.2
2014-Sep-29 15:33N 51°21' E 003°49'10 9.9
2014-Sep-29 14:33N 51°25' E 003°35'1313.0
2014-Sep-29 13:33N 51°24' E 003°14'1313.0
2014-Sep-29 12:33N 51°22' E 002°54'1111.1
2014-Sep-29 11:33N 51°20' E 002°36'0 0.1
2014-Sep-29 10:31N 51°20' E 002°36'0 0.0
2014-Sep-29 09:31N 51°20' E 002°36'0 0.0
2014-Sep-29 08:28N 51°20' E 002°36'0 0.0
2014-Sep-29 07:31N 51°20' E 002°36'0 0.1
2014-Sep-29 06:33N 51°20' E 002°36'6 6.1
2014-Sep-29 05:34N 51°21' E 002°26'6 5.7
2014-Sep-29 04:33N 51°18' E 002°18'7 6.9
2014-Sep-29 03:33N 51°15' E 002°09'1515.3
2014-Sep-29 02:33N 51°08' E 001°47'1716.6
2014-Sep-29 01:34N 50°55' E 001°30'1515.0
2014-Sep-29 00:34N 50°42' E 001°20'1514.8
2014-Sep-28 23:33N 50°32' E 001°01'1514.9
2014-Sep-28 22:34N 50°27' E 000°39'1515.1
2014-Sep-28 21:33N 50°23' E 000°17'1614.4
2014-Sep-28 20:28N 50°19' W 000°07'1213.6
2014-Sep-28 19:33N 50°16' W 000°26'1312.8
2014-Sep-28 18:33N 50°13' W 000°45'1211.6
2014-Sep-28 17:29N 50°09' W 001°04'2010.5
2014-Sep-28 15:33N 50°04' W 001°34'1310.5
2014-Sep-28 14:19N 50°00' W 001°53'  
2014-Sep-26 02:30N 38°45' W 009°56'2613.4
2014-Sep-26 00:33N 38°19' W 009°49'1713.4
2014-Sep-25 23:17N 38°02' W 009°44'1013.4
2014-Sep-25 22:33N 37°53' W 009°41'1313.0
2014-Sep-25 21:33N 37°41' W 009°36'1313.2
2014-Sep-25 20:33N 37°28' W 009°34'1313.3
2014-Sep-25 19:34N 37°15' W 009°30'1312.9
2014-Sep-25 18:33N 37°02' W 009°26'3611.3
2014-Sep-25 15:23N 36°40' W 008°51'1113.4
2014-Sep-25 14:33N 36°43' W 008°38'1313.5
2014-Sep-25 13:33N 36°46' W 008°22'1413.4
2014-Sep-25 12:30N 36°49' W 008°04'  
2014-Sep-22 07:32N 36°49' W 007°47'1515.5
2014-Sep-22 06:33N 36°45' W 008°05'1615.4
2014-Sep-22 05:32N 36°40' W 008°24'1514.7
2014-Sep-22 04:32N 36°35' W 008°41'8812.3
2014-Sep-21 21:26N 37°44' W 009°50'  

Dump ship's entire track history